createdAt,value
2022-09-03T00:01:44.568Z,256.73
2022-09-03T00:04:25.726Z,49.47
2022-09-03T00:06:59.283Z,28.45
2022-09-03T00:09:30.968Z,52.67
2022-09-03T00:12:02.816Z,21.27
2022-09-03T00:14:37.835Z,16.05
2022-09-03T00:17:11.612Z,34.10
2022-09-03T00:19:45.554Z,21.58
2022-09-03T00:22:16.752Z,31.05
2022-09-03T00:24:46.932Z,20.80
2022-09-03T00:27:18.864Z,25.27
2022-09-03T00:29:49.489Z,28.58
2022-09-03T00:32:19.871Z,108.88
2022-09-03T00:34:52.346Z,49.55
2022-09-03T00:37:21.533Z,35.35
2022-09-03T00:39:50.930Z,31.85
2022-09-03T00:42:29.610Z,27.17
2022-09-03T00:45:23.914Z,557.33
2022-09-03T00:48:03.927Z,189.57
2022-09-03T00:50:42.217Z,106.85
2022-09-03T00:53:16.053Z,421.17
2022-09-03T00:55:52.728Z,83.35
2022-09-03T00:58:41.210Z,54.08
2022-09-03T01:01:14.632Z,61.13
2022-09-03T01:03:51.363Z,68.80
2022-09-03T01:06:21.228Z,84.38
2022-09-03T01:09:05.283Z,17.70
2022-09-03T01:11:44.368Z,23.67
2022-09-03T01:14:20.217Z,29.75
2022-09-03T01:16:51.652Z,15.35
2022-09-03T01:19:56.670Z,28.52
2022-09-03T01:22:38.594Z,32.05
2022-09-03T01:25:17.687Z,24.77
2022-09-03T01:28:02.251Z,24.23
2022-09-03T01:30:32.694Z,160.10
2022-09-03T01:33:09.743Z,74.28
2022-09-03T01:35:45.349Z,464.70
2022-09-03T01:38:20.821Z,205.70
2022-09-03T01:40:56.067Z,492.17
2022-09-03T01:43:39.202Z,526.15
2022-09-03T01:46:14.056Z,63.28
2022-09-03T01:48:47.453Z,33.78
2022-09-03T01:51:21.723Z,27.83
2022-09-03T01:54:20.723Z,30.42
2022-09-03T01:57:12.685Z,12.77
2022-09-03T02:00:00.894Z,45.35
2022-09-03T02:02:30.826Z,108.93
2022-09-03T02:05:02.458Z,72.53
2022-09-03T02:07:34.794Z,30.50
2022-09-03T02:10:05.065Z,57.13
2022-09-03T02:12:34.724Z,30.98
2022-09-03T02:15:06.781Z,42.97
2022-09-03T02:17:35.012Z,29.15
2022-09-03T02:20:05.970Z,24.52
2022-09-03T02:22:34.411Z,21.92
2022-09-03T02:25:02.293Z,29.42
2022-09-03T02:27:30.122Z,21.25
2022-09-03T02:29:58.611Z,29.67
2022-09-03T02:32:27.922Z,19.95
2022-09-03T02:34:55.958Z,21.27
2022-09-03T02:37:24.107Z,25.98
2022-09-03T02:39:52.705Z,28.98
2022-09-03T02:42:20.687Z,53.70
2022-09-03T02:44:51.302Z,189.45
2022-09-03T02:47:20.680Z,423.55
2022-09-03T02:49:50.546Z,160.57
2022-09-03T02:52:18.365Z,278.77
2022-09-03T02:54:46.367Z,363.05
2022-09-03T02:57:16.256Z,309.98
2022-09-03T02:59:48.024Z,412.33
2022-09-03T03:02:15.979Z,200.65
2022-09-03T03:04:43.855Z,139.10
2022-09-03T03:07:13.044Z,63.78
2022-09-03T03:09:40.904Z,127.55
2022-09-03T03:12:10.290Z,61.78
2022-09-03T03:14:38.114Z,69.53
2022-09-03T03:17:06.295Z,80.78
2022-09-03T03:19:34.219Z,148.02
2022-09-03T03:22:01.996Z,94.22
2022-09-03T03:24:31.178Z,256.70
2022-09-03T03:26:59.343Z,223.75
2022-09-03T03:29:27.851Z,282.52
2022-09-03T03:31:56.020Z,532.92
2022-09-03T03:34:23.856Z,382.95
2022-09-03T03:36:51.711Z,380.83
2022-09-03T03:39:20.290Z,484.02
2022-09-03T03:41:49.515Z,25.52
2022-09-03T03:44:20.145Z,40.28
2022-09-03T03:46:47.978Z,118.32
2022-09-03T03:49:15.752Z,242.35
2022-09-03T03:51:43.613Z,13.75
2022-09-03T03:54:11.429Z,23.90
2022-09-03T03:56:42.319Z,29.98
2022-09-03T03:59:11.488Z,28.88
2022-09-03T04:01:39.316Z,22.23
2022-09-03T04:04:07.216Z,29.27
2022-09-03T04:06:35.164Z,24.30
2022-09-03T04:09:03.012Z,24.52
2022-09-03T04:11:30.826Z,20.45
2022-09-03T04:13:58.697Z,28.10
2022-09-03T04:16:29.074Z,23.67
2022-09-03T04:18:57.742Z,26.33
2022-09-03T04:21:28.419Z,28.02
2022-09-03T04:23:57.475Z,34.00
2022-09-03T04:26:27.575Z,26.80
2022-09-03T04:28:55.584Z,19.52
2022-09-03T04:31:23.399Z,23.58
2022-09-03T04:33:52.591Z,24.10
2022-09-03T04:36:21.940Z,21.08
2022-09-03T04:38:52.040Z,21.77
2022-09-03T04:41:21.683Z,23.75
2022-09-03T04:43:51.353Z,26.20
2022-09-03T04:46:20.678Z,17.45
2022-09-03T04:48:51.288Z,78.45
2022-09-03T04:51:22.364Z,42.00
2022-09-03T04:53:54.771Z,171.35
2022-09-03T04:56:24.961Z,136.20
2022-09-03T04:58:57.023Z,450.50
2022-09-03T05:01:27.225Z,250.43
2022-09-03T05:03:55.390Z,389.13
2022-09-03T05:06:25.634Z,94.72
2022-09-03T05:08:54.462Z,51.08
2022-09-03T05:11:22.838Z,24.38
2022-09-03T05:13:51.528Z,76.18
2022-09-03T05:16:21.789Z,40.65
2022-09-03T05:18:52.964Z,35.42
2022-09-03T05:21:21.313Z,27.83
2022-09-03T05:23:51.461Z,21.42
2022-09-03T05:26:20.626Z,61.03
2022-09-03T05:28:48.540Z,22.58
2022-09-03T05:31:17.738Z,22.30
2022-09-03T05:33:46.911Z,20.05
2022-09-03T05:36:16.368Z,19.42
2022-09-03T05:38:44.717Z,29.20
2022-09-03T05:41:14.708Z,20.63
2022-09-03T05:43:42.740Z,37.28
2022-09-03T05:46:11.881Z,24.42
2022-09-03T05:48:40.816Z,19.63
2022-09-03T05:51:09.852Z,31.08
2022-09-03T05:53:38.626Z,25.20
2022-09-03T05:56:10.821Z,18.35
2022-09-03T05:58:43.516Z,34.65
2022-09-03T06:01:12.910Z,55.38
2022-09-03T06:03:41.022Z,29.45
2022-09-03T06:06:09.147Z,15.05
2022-09-03T06:08:38.678Z,24.67
2022-09-03T06:11:07.362Z,62.47
2022-09-03T06:13:36.047Z,145.45
2022-09-03T06:16:07.543Z,288.50
2022-09-03T06:18:35.610Z,382.77
2022-09-03T06:21:05.477Z,378.50
2022-09-03T06:23:34.199Z,600.88
2022-09-03T06:26:06.665Z,680.97
2022-09-03T06:28:36.323Z,663.35
2022-09-03T07:04:25.165Z,626.58
2022-09-03T07:06:53.046Z,431.35
2022-09-03T07:09:20.840Z,257.10
2022-09-03T07:11:49.394Z,259.00
2022-09-03T07:14:18.403Z,42.88
2022-09-03T07:16:47.138Z,617.55
2022-09-03T07:19:15.097Z,681.40
2022-09-03T07:21:49.169Z,688.20
2022-09-03T07:24:18.193Z,687.88
2022-09-03T07:26:47.045Z,700.00
2022-09-03T07:29:16.048Z,690.92
2022-09-03T07:31:44.944Z,689.20
2022-09-03T07:34:15.113Z,661.92
2022-09-03T07:36:48.649Z,684.28
2022-09-03T07:39:17.807Z,622.75
2022-09-03T07:41:46.817Z,604.65
2022-09-03T07:44:15.427Z,576.05
2022-09-03T07:46:43.666Z,561.33
2022-09-03T07:49:11.609Z,708.95
2022-09-03T07:51:40.182Z,690.33
2022-09-03T07:54:11.421Z,687.63
2022-09-03T07:56:40.450Z,683.95
2022-09-03T07:59:08.923Z,684.72
2022-09-03T08:01:38.480Z,690.50
2022-09-03T08:04:11.060Z,685.60
2022-09-03T08:06:39.499Z,581.25
2022-09-03T08:09:11.358Z,543.60
2022-09-03T08:11:40.980Z,688.78
2022-09-03T08:14:10.139Z,668.90
2022-09-03T08:16:39.930Z,504.58
2022-09-03T08:19:08.937Z,676.08
2022-09-03T08:21:36.945Z,700.55
2022-09-03T08:24:05.845Z,693.47
2022-09-03T08:26:36.424Z,704.13
2022-09-03T08:29:05.221Z,693.38
2022-09-03T08:31:33.704Z,685.72
2022-09-03T08:34:06.938Z,592.78
2022-09-03T08:36:36.838Z,555.05
2022-09-03T08:39:09.955Z,705.35
2022-09-03T08:42:01.073Z,533.22
2022-09-03T08:44:30.842Z,610.38
2022-09-03T08:47:02.033Z,430.83
2022-09-03T08:49:34.094Z,579.88
2022-09-03T08:52:04.262Z,591.75
2022-09-03T08:54:33.144Z,697.55
2022-09-03T08:57:04.174Z,700.92
2022-09-03T08:59:33.400Z,708.65
2022-09-03T09:02:08.170Z,666.80
2022-09-03T09:04:46.542Z,636.38
2022-09-03T09:07:18.581Z,733.53
2022-09-03T09:09:52.472Z,584.00
2022-09-03T09:12:41.306Z,640.53
2022-09-03T09:15:15.609Z,539.63
2022-09-03T09:18:02.625Z,465.92
2022-09-03T09:20:37.550Z,483.98
2022-09-03T09:23:06.648Z,467.38
2022-09-03T09:25:39.466Z,513.70
2022-09-03T09:28:15.178Z,447.30
2022-09-03T09:30:44.041Z,495.88
2022-09-03T09:33:12.307Z,196.02
2022-09-03T09:35:42.420Z,220.23
2022-09-03T09:38:11.631Z,293.75
2022-09-03T09:40:44.624Z,561.38
2022-09-03T09:43:16.224Z,582.25
2022-09-03T09:48:31.576Z,523.00
2022-09-03T09:51:07.228Z,489.88
2022-09-03T09:53:35.333Z,519.45
2022-09-03T09:56:04.077Z,445.02
2022-09-03T09:58:34.487Z,389.95
2022-09-03T10:01:05.314Z,283.27
2022-09-03T10:03:35.066Z,467.40
2022-09-03T10:06:26.910Z,537.92
2022-09-03T10:08:56.867Z,517.55
2022-09-03T10:11:27.545Z,313.13
2022-09-03T10:13:57.383Z,322.65
2022-09-03T10:16:28.882Z,229.07
2022-09-03T10:19:04.460Z,521.78
2022-09-03T10:21:37.711Z,508.38
2022-09-03T10:24:16.985Z,469.88
2022-09-03T10:26:46.078Z,699.67
2022-09-03T10:29:19.539Z,610.60
2022-09-03T10:31:56.933Z,645.42
2022-09-03T10:34:37.213Z,665.22
2022-09-03T10:37:15.359Z,715.50
2022-09-03T10:40:01.724Z,711.90
2022-09-03T10:42:39.836Z,719.45
2022-09-03T10:45:17.922Z,709.53
2022-09-03T10:48:21.132Z,706.00
2022-09-03T10:50:53.703Z,702.45
2022-09-03T10:53:32.426Z,709.90
2022-09-03T10:56:02.990Z,717.72
2022-09-03T10:58:42.190Z,691.17
2022-09-03T11:01:16.021Z,693.28
2022-09-03T11:03:47.010Z,698.35
2022-09-03T11:06:19.818Z,719.75
2022-09-03T11:08:50.421Z,713.75
2022-09-03T11:11:22.749Z,718.03
2022-09-03T11:13:54.116Z,711.92
2022-09-03T11:16:27.052Z,704.25
2022-09-03T11:18:57.100Z,679.65
2022-09-03T11:21:26.719Z,710.97
2022-09-03T11:24:02.467Z,671.95
2022-09-03T11:26:30.913Z,677.47
2022-09-03T11:29:01.558Z,633.42
2022-09-03T11:31:40.287Z,683.00
2022-09-03T11:34:23.236Z,699.03
2022-09-03T11:36:51.388Z,695.60
2022-09-03T11:39:21.906Z,714.70
2022-09-03T11:41:59.611Z,688.55
2022-09-03T11:44:37.806Z,690.47
2022-09-03T11:47:21.657Z,683.95
2022-09-03T11:49:51.864Z,679.35
2022-09-03T11:52:29.508Z,682.95
2022-09-03T11:54:57.729Z,680.10
2022-09-03T11:57:29.761Z,667.20
2022-09-03T12:00:11.422Z,653.70
2022-09-03T12:02:45.542Z,643.47
2022-09-03T12:05:23.241Z,641.55
2022-09-03T12:08:30.859Z,664.65
2022-09-03T12:11:03.793Z,706.55
2022-09-03T12:13:43.268Z,691.85
2022-09-03T12:16:43.012Z,668.15
2022-09-03T12:19:22.200Z,614.03
2022-09-03T12:21:52.847Z,608.85
2022-09-03T12:24:23.310Z,635.30
2022-09-03T12:26:51.251Z,585.78
2022-09-03T12:29:27.819Z,527.05
2022-09-03T12:31:56.502Z,546.47
2022-09-03T12:34:27.450Z,544.45
2022-09-03T12:36:58.307Z,531.63
2022-09-03T12:42:21.544Z,577.28
2022-09-03T12:44:49.787Z,585.45
2022-09-03T12:50:11.248Z,429.17
2022-09-03T12:52:42.365Z,400.23
2022-09-03T12:55:27.669Z,415.42
2022-09-03T12:58:02.623Z,357.08
2022-09-03T13:00:33.088Z,364.58
2022-09-03T13:03:02.438Z,380.08
2022-09-03T13:05:35.199Z,321.45
2022-09-03T13:08:05.826Z,356.52
2022-09-03T13:10:36.915Z,313.05
2022-09-03T13:13:08.802Z,356.88
2022-09-03T13:15:36.617Z,167.65
2022-09-03T13:18:24.905Z,141.52
2022-09-03T13:21:08.106Z,78.88
2022-09-03T13:23:43.944Z,137.95
2022-09-03T13:26:22.645Z,160.63
2022-09-03T13:28:58.836Z,104.90
2022-09-03T13:31:31.391Z,44.17
2022-09-03T13:34:02.687Z,49.45
2022-09-03T13:36:35.417Z,100.72
2022-09-03T13:39:06.418Z,66.75
2022-09-03T13:41:39.389Z,260.08
2022-09-03T13:44:11.545Z,343.77
2022-09-03T13:46:45.410Z,212.00
2022-09-03T13:49:40.171Z,273.63
2022-09-03T13:52:16.080Z,295.95
2022-09-03T13:54:49.691Z,281.40
2022-09-03T13:57:28.192Z,258.20
2022-09-03T13:59:58.331Z,339.08
2022-09-03T14:02:35.137Z,332.17
2022-09-03T14:05:07.935Z,304.88
2022-09-03T14:07:51.340Z,323.13
2022-09-03T14:10:24.168Z,344.60
2022-09-03T14:13:01.750Z,495.48
2022-09-03T14:15:32.819Z,535.35
2022-09-03T14:18:13.766Z,446.80
2022-09-03T14:20:49.012Z,544.78
2022-09-03T14:23:32.686Z,656.25
2022-09-03T14:26:02.237Z,632.88
2022-09-03T14:28:32.972Z,644.50
2022-09-03T14:31:12.078Z,635.22
2022-09-03T14:33:45.822Z,636.72
2022-09-03T14:36:22.411Z,639.63
2022-09-03T14:39:09.222Z,647.75
2022-09-03T14:42:05.225Z,538.83
2022-09-03T14:45:20.353Z,639.58
2022-09-03T14:48:06.564Z,621.30
2022-09-03T14:50:51.724Z,632.10
2022-09-03T14:53:49.147Z,666.60
2022-09-03T14:56:26.016Z,651.28
2022-09-03T14:59:07.521Z,642.72
2022-09-03T15:01:39.259Z,650.53
2022-09-03T15:04:37.588Z,660.58
2022-09-03T15:07:28.070Z,665.28
2022-09-03T15:10:03.216Z,660.20
2022-09-03T15:12:38.191Z,673.83
2022-09-03T15:15:11.523Z,668.65
2022-09-03T15:17:57.523Z,666.70
2022-09-03T15:20:35.790Z,677.83
2022-09-03T15:23:21.160Z,685.50
2022-09-03T15:26:19.348Z,672.92
2022-09-03T15:28:58.577Z,669.55
2022-09-03T15:31:35.513Z,665.75
2022-09-03T15:34:12.755Z,688.78
2022-09-03T15:36:45.729Z,680.50
2022-09-03T15:39:21.475Z,687.13
2022-09-03T15:41:57.120Z,687.05
2022-09-03T15:44:27.670Z,690.13
2022-09-03T15:46:59.057Z,684.50
2022-09-03T15:49:48.203Z,686.83
2022-09-03T15:52:30.426Z,679.83
2022-09-03T15:55:04.058Z,680.20
2022-09-03T15:57:37.161Z,675.47
2022-09-03T16:00:10.477Z,670.90
2022-09-03T16:02:43.668Z,679.22
2022-09-03T16:05:16.353Z,679.33
2022-09-03T16:07:56.406Z,683.85
2022-09-03T16:10:36.785Z,677.55
2022-09-03T16:13:09.075Z,687.78
2022-09-03T16:15:42.298Z,679.10
2022-09-03T16:18:25.990Z,682.13
2022-09-03T16:20:57.378Z,679.25
2022-09-03T16:23:29.029Z,706.58
2022-09-03T16:26:00.027Z,686.25
2022-09-03T16:28:31.245Z,675.05
2022-09-03T16:31:08.985Z,685.97
2022-09-03T16:33:43.658Z,675.05
2022-09-03T16:36:24.692Z,686.70
2022-09-03T16:39:00.284Z,697.95
2022-09-03T16:41:31.703Z,698.33
2022-09-03T16:44:06.138Z,690.38
2022-09-03T16:46:42.119Z,702.15
2022-09-03T16:49:36.039Z,676.58
2022-09-03T16:52:12.388Z,689.50
2022-09-03T16:54:57.210Z,686.55
2022-09-03T16:57:36.951Z,694.30
2022-09-03T17:00:12.446Z,698.33
2022-09-03T17:03:25.127Z,695.92
2022-09-03T17:06:06.295Z,631.95
2022-09-03T17:08:43.289Z,660.92
2022-09-03T17:11:20.351Z,665.50
2022-09-03T17:14:01.777Z,678.78
2022-09-03T17:16:44.360Z,683.40
2022-09-03T17:19:19.816Z,670.60
2022-09-03T17:21:50.659Z,689.83
2022-09-03T17:24:36.034Z,681.95
2022-09-03T17:27:14.152Z,681.67
2022-09-03T17:29:56.495Z,678.97
2022-09-03T17:32:40.135Z,693.65
2022-09-03T17:35:13.307Z,685.60
2022-09-03T17:37:52.713Z,684.90
2022-09-03T17:40:27.569Z,681.63
2022-09-03T17:42:58.452Z,688.10
2022-09-03T17:45:38.595Z,677.28
2022-09-03T17:48:19.535Z,691.88
2022-09-03T17:50:52.291Z,685.65
2022-09-03T17:53:24.957Z,689.80
2022-09-03T17:55:57.605Z,688.78
2022-09-03T17:58:31.376Z,664.00
2022-09-03T18:01:09.061Z,684.00
2022-09-03T18:03:44.065Z,681.80
2022-09-03T18:06:23.963Z,669.42
2022-09-03T18:08:56.767Z,683.55
2022-09-03T18:11:33.797Z,679.35
2022-09-03T18:14:09.182Z,680.42
2022-09-03T18:16:39.109Z,673.30
2022-09-03T18:19:18.313Z,678.33
2022-09-03T18:22:06.204Z,675.58
2022-09-03T18:24:54.825Z,677.50
2022-09-03T18:27:47.377Z,684.55
2022-09-03T18:30:34.298Z,686.63
2022-09-03T18:33:19.609Z,704.20
2022-09-03T18:36:05.863Z,686.13
2022-09-03T18:38:55.113Z,654.67
2022-09-03T18:42:02.832Z,660.95
2022-09-03T18:48:20.270Z,679.28
2022-09-03T18:51:10.757Z,665.58
2022-09-03T18:54:05.659Z,674.70
2022-09-03T18:56:55.813Z,678.97
2022-09-03T18:59:52.797Z,673.47
2022-09-03T19:02:46.664Z,663.17
2022-09-03T19:05:36.214Z,651.03
2022-09-03T19:08:28.049Z,665.13
2022-09-03T19:11:20.115Z,670.10
2022-09-03T19:14:05.600Z,693.80
2022-09-03T19:17:00.732Z,698.33
2022-09-03T19:20:09.345Z,723.35
2022-09-03T19:22:56.366Z,697.20
2022-09-03T19:25:42.711Z,682.90
2022-09-03T19:28:35.268Z,690.22
2022-09-03T19:31:36.934Z,697.25
2022-09-03T19:34:28.513Z,687.00
2022-09-03T19:37:19.657Z,679.47
2022-09-03T19:40:17.077Z,694.75
2022-09-03T19:43:10.936Z,680.40
2022-09-03T19:46:05.260Z,649.08
2022-09-03T19:49:02.977Z,686.38
2022-09-03T19:51:51.681Z,688.50
2022-09-03T19:54:38.567Z,698.65
2022-09-03T19:57:24.079Z,694.78
2022-09-03T20:00:09.419Z,693.45
2022-09-03T20:02:57.141Z,688.47
2022-09-03T20:05:42.778Z,684.90
2022-09-03T20:08:31.413Z,694.30
2022-09-03T20:10:59.549Z,689.20
2022-09-03T20:13:28.513Z,693.33
2022-09-03T20:16:02.878Z,687.33
2022-09-03T20:18:40.300Z,681.13
2022-09-03T20:21:14.339Z,667.28
2022-09-03T20:23:48.744Z,668.90
2022-09-03T20:26:25.874Z,692.75
2022-09-03T20:29:04.463Z,664.03
2022-09-03T20:31:42.894Z,688.15
2022-09-03T20:34:21.512Z,688.33
2022-09-03T20:37:09.745Z,692.00
2022-09-03T20:39:45.208Z,675.33
2022-09-03T20:42:34.139Z,694.25
2022-09-03T20:45:06.636Z,685.05
2022-09-03T20:48:09.296Z,689.90
2022-09-03T20:50:50.956Z,690.55
2022-09-03T20:53:28.225Z,713.00
2022-09-03T20:55:59.601Z,684.83
2022-09-03T20:58:31.812Z,686.13
2022-09-03T21:01:04.832Z,685.53
2022-09-03T21:03:37.190Z,694.40
2022-09-03T21:06:16.080Z,671.47
2022-09-03T21:09:00.978Z,677.97
2022-09-03T21:11:36.379Z,684.97
2022-09-03T21:14:14.568Z,687.70
2022-09-03T21:16:49.919Z,684.17
2022-09-03T21:19:22.349Z,687.15
2022-09-03T21:21:59.525Z,694.47
2022-09-03T21:24:31.646Z,681.03
2022-09-03T21:27:02.977Z,681.45
2022-09-03T21:29:33.948Z,689.03
2022-09-03T21:32:05.417Z,685.92
2022-09-03T21:34:38.534Z,685.55
2022-09-03T21:37:11.876Z,687.53
2022-09-03T21:39:43.934Z,694.72
2022-09-03T21:42:17.721Z,687.13
2022-09-03T21:44:53.986Z,697.28
2022-09-03T21:47:24.704Z,681.08
2022-09-03T21:49:58.316Z,677.92
2022-09-03T21:52:32.701Z,675.30
2022-09-03T21:55:01.121Z,693.60
2022-09-03T21:57:34.194Z,662.58
2022-09-03T22:00:21.815Z,645.92
2022-09-03T22:02:50.943Z,683.67
2022-09-03T22:05:19.166Z,690.35
2022-09-03T22:08:04.987Z,685.60
2022-09-03T22:10:34.191Z,684.72
2022-09-03T22:13:14.868Z,694.15
2022-09-03T22:15:44.116Z,678.13
2022-09-03T22:18:19.339Z,674.03
2022-09-03T22:21:01.175Z,666.60
2022-09-03T22:23:43.599Z,649.47
2022-09-03T22:26:22.772Z,666.80
2022-09-03T22:29:00.536Z,659.72
2022-09-03T22:31:38.414Z,672.20
2022-09-03T22:34:17.065Z,677.47
2022-09-03T22:36:50.471Z,679.28
2022-09-03T22:39:25.875Z,666.28
2022-09-03T22:42:09.999Z,681.65
2022-09-03T22:44:57.092Z,678.17
2022-09-03T22:47:33.954Z,677.97
2022-09-03T22:50:13.420Z,678.28
2022-09-03T22:52:45.937Z,679.08
2022-09-03T22:55:18.464Z,692.72
2022-09-03T22:57:53.379Z,673.92
2022-09-03T23:00:21.242Z,675.00
2022-09-03T23:02:52.632Z,674.30
2022-09-03T23:05:31.502Z,677.78
2022-09-03T23:08:06.266Z,666.55
2022-09-03T23:10:55.097Z,657.90
2022-09-03T23:13:25.304Z,681.05
2022-09-03T23:16:00.864Z,674.88
2022-09-03T23:18:30.907Z,665.38
2022-09-03T23:21:05.958Z,661.38
2022-09-03T23:23:36.237Z,668.90
2022-09-03T23:26:13.610Z,666.03
2022-09-03T23:28:44.583Z,656.45
2022-09-03T23:31:22.600Z,668.30
2022-09-03T23:33:52.272Z,674.92
2022-09-03T23:36:55.085Z,663.55
2022-09-03T23:39:30.280Z,667.00
2022-09-03T23:42:06.922Z,679.97
2022-09-03T23:44:45.405Z,681.50
2022-09-03T23:47:20.849Z,672.53
2022-09-03T23:49:57.565Z,676.33
2022-09-03T23:52:44.285Z,672.58
2022-09-03T23:55:20.890Z,674.00
2022-09-03T23:57:55.551Z,683.67
